createdAt,value
2023-01-07T00:00:34.237Z,21.88
2023-01-07T00:01:38.539Z,21.57
2023-01-07T00:02:40.413Z,21.53
2023-01-07T00:03:43.174Z,21.81
2023-01-07T00:04:45.090Z,21.84
2023-01-07T00:05:46.946Z,21.97
2023-01-07T00:06:50.118Z,21.68
2023-01-07T00:07:51.960Z,21.89
2023-01-07T00:08:56.132Z,21.48
2023-01-07T00:09:57.945Z,21.76
2023-01-07T00:11:03.941Z,22.07
2023-01-07T00:12:05.802Z,21.61
2023-01-07T00:13:07.632Z,21.72
2023-01-07T00:14:11.663Z,21.89
2023-01-07T00:15:13.566Z,21.96
2023-01-07T00:16:17.900Z,21.77
2023-01-07T00:17:19.679Z,21.80
2023-01-07T00:18:21.544Z,21.84
2023-01-07T00:19:24.344Z,21.84
2023-01-07T00:20:26.095Z,22.08
2023-01-07T00:21:29.190Z,21.76
2023-01-07T00:22:31.005Z,21.68
2023-01-07T00:23:34.049Z,21.63
2023-01-07T00:24:35.847Z,21.81
2023-01-07T00:25:37.705Z,21.75
2023-01-07T00:26:41.680Z,21.84
2023-01-07T00:27:43.559Z,22.00
2023-01-07T00:28:48.081Z,22.05
2023-01-07T00:29:49.923Z,21.92
2023-01-07T00:30:51.793Z,21.67
2023-01-07T00:31:53.873Z,22.24
2023-01-07T00:33:04.617Z,21.96
2023-01-07T00:34:07.087Z,21.82
2023-01-07T00:35:22.000Z,22.00
2023-01-07T00:36:27.031Z,22.08
2023-01-07T00:37:47.301Z,21.77
2023-01-07T00:38:56.973Z,22.09
2023-01-07T00:39:58.805Z,21.67
2023-01-07T00:41:00.773Z,22.12
2023-01-07T00:42:21.132Z,22.07
2023-01-07T00:43:23.028Z,22.04
2023-01-07T00:44:24.880Z,21.98
2023-01-07T00:45:27.170Z,21.84
2023-01-07T00:46:29.831Z,22.11
2023-01-07T00:47:31.648Z,22.18
2023-01-07T00:48:33.510Z,21.89
2023-01-07T00:49:35.312Z,22.04
2023-01-07T00:50:38.188Z,22.17
2023-01-07T00:51:40.000Z,21.99
2023-01-07T00:52:42.053Z,22.61
2023-01-07T00:53:44.392Z,22.04
2023-01-07T00:54:46.611Z,22.27
2023-01-07T00:55:50.084Z,22.12
2023-01-07T00:56:51.966Z,21.89
2023-01-07T00:57:54.367Z,22.25
2023-01-07T00:58:56.479Z,22.00
2023-01-07T00:59:58.296Z,22.37
2023-01-07T01:01:01.720Z,22.53
2023-01-07T01:02:03.891Z,22.23
2023-01-07T01:03:05.858Z,22.13
2023-01-07T01:04:08.314Z,22.08
2023-01-07T01:05:11.500Z,22.49
2023-01-07T01:06:16.026Z,22.02
2023-01-07T01:07:17.908Z,22.22
2023-01-07T01:08:21.265Z,22.28
2023-01-07T01:09:25.387Z,22.06
2023-01-07T01:10:28.520Z,22.14
2023-01-07T01:11:30.343Z,21.98
2023-01-07T01:12:32.330Z,22.34
2023-01-07T01:13:34.751Z,21.88
2023-01-07T01:14:36.668Z,22.19
2023-01-07T01:15:42.789Z,22.38
2023-01-07T01:16:44.819Z,22.45
2023-01-07T01:17:47.151Z,22.48
2023-01-07T01:18:48.948Z,22.37
2023-01-07T01:19:50.856Z,22.63
2023-01-07T01:20:55.062Z,22.29
2023-01-07T01:21:56.943Z,22.53
2023-01-07T01:22:58.790Z,22.09
2023-01-07T01:24:00.830Z,22.58
2023-01-07T01:25:02.660Z,22.61
2023-01-07T01:26:09.047Z,22.40
2023-01-07T01:27:10.935Z,22.43
2023-01-07T01:28:12.784Z,22.65
2023-01-07T01:29:14.573Z,22.74
2023-01-07T01:30:16.493Z,22.42
2023-01-07T01:31:19.309Z,22.49
2023-01-07T01:32:25.318Z,22.74
2023-01-07T01:33:27.220Z,22.55
2023-01-07T01:34:29.173Z,22.59
2023-01-07T01:35:31.154Z,22.50
2023-01-07T01:36:33.021Z,22.53
2023-01-07T01:37:35.175Z,22.48
2023-01-07T01:38:37.697Z,22.64
2023-01-07T01:39:39.559Z,22.52
2023-01-07T01:40:41.385Z,22.48
2023-01-07T01:41:43.539Z,22.65
2023-01-07T01:42:45.311Z,22.91
2023-01-07T01:43:51.688Z,22.76
2023-01-07T01:44:59.332Z,22.61
2023-01-07T01:46:17.533Z,22.83
2023-01-07T01:47:27.542Z,22.69
2023-01-07T01:48:31.388Z,22.90
2023-01-07T01:49:38.668Z,22.59
2023-01-07T01:50:46.512Z,22.66
2023-01-07T01:51:57.569Z,22.55
2023-01-07T01:53:04.852Z,22.63
2023-01-07T01:54:11.369Z,22.56
2023-01-07T01:55:17.111Z,22.93
2023-01-07T01:56:27.485Z,22.73
2023-01-07T01:57:33.193Z,22.62
2023-01-07T01:58:43.005Z,22.72
2023-01-07T01:59:49.915Z,22.90
2023-01-07T02:00:52.261Z,23.03
2023-01-07T02:01:55.009Z,22.84
2023-01-07T02:02:58.904Z,22.87
2023-01-07T02:04:05.165Z,23.07
2023-01-07T02:05:07.852Z,22.85
2023-01-07T02:06:14.748Z,23.15
2023-01-07T02:07:18.132Z,22.66
2023-01-07T02:08:25.183Z,23.03
2023-01-07T02:09:30.151Z,23.13
2023-01-07T02:10:33.253Z,23.11
2023-01-07T02:11:50.209Z,22.88
2023-01-07T02:13:12.044Z,22.93
2023-01-07T02:14:41.168Z,22.76
2023-01-07T02:16:13.788Z,22.81
2023-01-07T02:17:44.757Z,23.00
2023-01-07T02:18:49.438Z,22.84
2023-01-07T02:20:09.666Z,23.02
2023-01-07T02:21:28.250Z,22.93
2023-01-07T02:22:56.875Z,22.95
2023-01-07T02:24:01.764Z,22.67
2023-01-07T02:25:21.811Z,22.61
2023-01-07T02:26:29.641Z,22.85
2023-01-07T02:28:19.731Z,23.01
2023-01-07T02:29:37.021Z,22.58
2023-01-07T02:30:50.941Z,22.72
2023-01-07T02:32:49.905Z,23.12
2023-01-07T02:34:03.073Z,22.89
2023-01-07T02:35:16.727Z,22.92
2023-01-07T02:36:34.271Z,22.84
2023-01-07T02:37:57.158Z,22.88
2023-01-07T02:39:31.164Z,23.10
2023-01-07T02:40:43.909Z,22.85
2023-01-07T02:41:51.535Z,22.71
2023-01-07T02:43:11.324Z,23.20
2023-01-07T02:44:29.926Z,22.99
2023-01-07T02:45:44.461Z,22.92
2023-01-07T02:46:54.558Z,22.71
2023-01-07T02:48:05.411Z,23.19
2023-01-07T02:49:14.416Z,23.24
2023-01-07T02:50:16.309Z,22.98
2023-01-07T02:51:18.208Z,23.15
2023-01-07T02:52:23.328Z,22.99
2023-01-07T02:53:25.225Z,23.23
2023-01-07T02:54:30.036Z,23.03
2023-01-07T02:55:57.037Z,23.34
2023-01-07T02:57:28.702Z,22.86
2023-01-07T02:58:31.726Z,22.79
2023-01-07T02:59:41.684Z,23.03
2023-01-07T03:01:07.377Z,23.02
2023-01-07T03:02:36.143Z,23.24
2023-01-07T03:04:03.478Z,22.72
2023-01-07T03:05:44.853Z,22.92
2023-01-07T03:06:46.632Z,22.92
2023-01-07T03:07:55.752Z,22.66
2023-01-07T03:09:07.541Z,22.68
2023-01-07T03:10:25.738Z,23.01
2023-01-07T03:11:35.171Z,22.91
2023-01-07T03:12:53.210Z,23.00
2023-01-07T03:14:08.207Z,23.10
2023-01-07T03:15:27.497Z,23.11
2023-01-07T03:16:37.636Z,23.17
2023-01-07T03:17:46.319Z,23.02
2023-01-07T03:18:59.446Z,22.93
2023-01-07T03:20:05.880Z,22.96
2023-01-07T03:21:12.801Z,22.94
2023-01-07T03:22:18.077Z,22.75
2023-01-07T03:23:23.689Z,23.21
2023-01-07T03:24:28.030Z,22.91
2023-01-07T03:25:30.957Z,22.96
2023-01-07T03:26:39.191Z,22.85
2023-01-07T03:27:45.679Z,23.29
2023-01-07T03:28:50.193Z,22.91
2023-01-07T03:29:54.254Z,23.24
2023-01-07T03:30:58.762Z,22.87
2023-01-07T03:32:13.422Z,23.31
2023-01-07T03:33:21.462Z,22.93
2023-01-07T03:34:26.510Z,23.22
2023-01-07T03:35:31.036Z,23.26
2023-01-07T03:36:52.795Z,22.97
2023-01-07T03:37:56.171Z,23.02
2023-01-07T03:38:59.105Z,23.31
2023-01-07T03:40:06.547Z,23.07
2023-01-07T03:41:08.713Z,22.85
2023-01-07T03:42:30.484Z,22.90
2023-01-07T03:43:32.679Z,22.99
2023-01-07T03:44:34.883Z,23.18
2023-01-07T03:45:36.741Z,23.11
2023-01-07T03:46:39.050Z,23.30
2023-01-07T03:47:46.353Z,23.16
2023-01-07T03:48:48.938Z,22.79
2023-01-07T03:49:50.766Z,22.99
2023-01-07T03:50:52.667Z,23.32
2023-01-07T03:51:55.300Z,23.02
2023-01-07T03:52:57.629Z,22.93
2023-01-07T03:54:00.166Z,23.08
2023-01-07T03:55:02.188Z,23.39
2023-01-07T03:56:05.312Z,23.07
2023-01-07T03:57:07.111Z,23.36
2023-01-07T03:58:09.018Z,23.26
2023-01-07T03:59:11.071Z,23.09
2023-01-07T04:00:15.586Z,23.29
2023-01-07T04:01:23.072Z,23.02
2023-01-07T04:02:25.692Z,23.16
2023-01-07T04:03:27.480Z,23.01
2023-01-07T04:04:29.917Z,23.20
2023-01-07T04:05:31.948Z,23.34
2023-01-07T04:06:34.185Z,23.30
2023-01-07T04:07:36.160Z,23.19
2023-01-07T04:08:38.017Z,23.15
2023-01-07T04:09:41.207Z,23.16
2023-01-07T04:10:44.027Z,23.11
2023-01-07T04:11:48.090Z,22.81
2023-01-07T04:12:50.295Z,23.14
2023-01-07T04:13:52.188Z,23.36
2023-01-07T04:14:54.199Z,23.05
2023-01-07T04:15:56.644Z,23.21
2023-01-07T04:16:58.508Z,23.07
2023-01-07T04:18:00.389Z,23.33
2023-01-07T04:19:03.984Z,23.09
2023-01-07T04:20:08.091Z,23.02
2023-01-07T04:21:10.888Z,23.17
2023-01-07T04:22:12.838Z,22.88
2023-01-07T04:23:17.435Z,23.25
2023-01-07T04:24:21.570Z,22.99
2023-01-07T04:25:23.842Z,23.14
2023-01-07T04:26:25.771Z,23.00
2023-01-07T04:27:27.826Z,22.98
2023-01-07T04:28:29.677Z,23.22
2023-01-07T04:29:32.678Z,23.12
2023-01-07T04:30:35.571Z,23.03
2023-01-07T04:31:37.523Z,22.82
2023-01-07T04:32:39.848Z,22.97
2023-01-07T04:33:41.779Z,22.80
2023-01-07T04:34:43.677Z,23.06
2023-01-07T04:35:48.772Z,23.01
2023-01-07T04:36:51.603Z,22.97
2023-01-07T04:37:53.390Z,23.04
2023-01-07T04:38:55.966Z,22.85
2023-01-07T04:39:57.772Z,23.03
2023-01-07T04:40:59.736Z,23.15
2023-01-07T04:42:01.559Z,22.74
2023-01-07T04:43:04.239Z,22.93
2023-01-07T04:44:06.614Z,23.21
2023-01-07T04:45:09.210Z,23.25
2023-01-07T04:46:11.357Z,22.82
2023-01-07T04:47:13.298Z,23.18
2023-01-07T04:48:15.111Z,22.77
2023-01-07T04:49:17.717Z,22.90
2023-01-07T04:50:20.136Z,22.84
2023-01-07T04:51:22.599Z,23.06
2023-01-07T04:52:24.801Z,23.25
2023-01-07T04:53:29.096Z,22.91
2023-01-07T04:54:30.998Z,23.01
2023-01-07T04:55:32.966Z,23.24
2023-01-07T04:56:36.089Z,23.01
2023-01-07T04:57:38.412Z,23.18
2023-01-07T04:58:40.633Z,23.16
2023-01-07T04:59:42.499Z,22.80
2023-01-07T05:00:45.562Z,23.10
2023-01-07T05:01:47.812Z,23.05
2023-01-07T05:02:50.626Z,23.03
2023-01-07T05:03:52.744Z,23.05
2023-01-07T05:04:55.065Z,23.33
2023-01-07T05:05:57.541Z,23.21
2023-01-07T05:06:59.362Z,23.23
2023-01-07T05:08:02.176Z,22.85
2023-01-07T05:09:05.370Z,22.81
2023-01-07T05:10:08.605Z,23.00
2023-01-07T05:11:10.822Z,22.97
2023-01-07T05:12:16.485Z,22.96
2023-01-07T05:13:21.213Z,23.33
2023-01-07T05:14:23.136Z,23.05
2023-01-07T05:15:28.292Z,22.93
2023-01-07T05:16:31.163Z,22.97
2023-01-07T05:17:36.508Z,23.37
2023-01-07T05:18:39.463Z,23.37
2023-01-07T05:19:42.229Z,23.16
2023-01-07T05:20:48.405Z,22.88
2023-01-07T05:21:50.356Z,23.28
2023-01-07T05:22:52.942Z,23.20
2023-01-07T05:23:55.045Z,23.16
2023-01-07T05:24:57.597Z,22.81
2023-01-07T05:26:01.729Z,23.42
2023-01-07T05:27:05.746Z,23.29
2023-01-07T05:28:10.027Z,23.03
2023-01-07T05:29:14.165Z,22.95
2023-01-07T05:30:18.049Z,23.24
2023-01-07T05:31:21.494Z,23.34
2023-01-07T05:32:23.502Z,23.23
2023-01-07T05:33:25.752Z,23.39
2023-01-07T05:34:28.907Z,23.10
2023-01-07T05:35:32.496Z,23.06
2023-01-07T05:36:35.389Z,23.25
2023-01-07T05:37:38.718Z,22.96
2023-01-07T05:38:42.767Z,23.46
2023-01-07T05:39:45.513Z,22.98
2023-01-07T05:40:52.156Z,23.17
2023-01-07T05:41:57.471Z,23.29
2023-01-07T05:43:00.716Z,23.24
2023-01-07T05:44:03.767Z,23.32
2023-01-07T05:45:06.162Z,23.18
2023-01-07T05:46:08.058Z,23.34
2023-01-07T05:47:09.940Z,23.36
2023-01-07T05:48:12.696Z,23.11
2023-01-07T05:49:14.515Z,23.36
2023-01-07T05:50:16.346Z,23.06
2023-01-07T05:51:18.209Z,23.45
2023-01-07T05:52:19.983Z,23.20
2023-01-07T05:53:21.844Z,23.34
2023-01-07T05:54:23.605Z,23.23
2023-01-07T05:55:25.509Z,23.56
2023-01-07T05:56:27.479Z,23.14
2023-01-07T05:57:29.332Z,23.14
2023-01-07T05:58:31.176Z,23.19
2023-01-07T05:59:34.831Z,23.32
2023-01-07T06:00:37.219Z,23.36
2023-01-07T06:01:39.084Z,23.34
2023-01-07T06:02:40.901Z,23.45
2023-01-07T06:03:42.858Z,23.48
2023-01-07T06:04:44.872Z,23.53
2023-01-07T06:05:47.265Z,23.53
2023-01-07T06:06:49.136Z,23.24
2023-01-07T06:07:51.010Z,23.73
2023-01-07T06:08:52.784Z,23.43
2023-01-07T06:09:54.595Z,23.61
2023-01-07T06:10:56.355Z,23.59
2023-01-07T06:11:58.372Z,23.46
2023-01-07T06:13:00.238Z,23.36
2023-01-07T06:14:02.130Z,23.27
2023-01-07T06:15:04.640Z,23.78
2023-01-07T06:16:09.521Z,23.20
2023-01-07T06:17:11.347Z,23.60
2023-01-07T06:18:13.165Z,23.62
2023-01-07T06:19:15.104Z,23.61
2023-01-07T06:20:17.084Z,23.59
2023-01-07T06:21:19.025Z,23.62
2023-01-07T06:22:20.807Z,23.53
2023-01-07T06:23:22.923Z,23.52
2023-01-07T06:24:24.751Z,23.54
2023-01-07T06:25:26.628Z,23.22
2023-01-07T06:26:28.456Z,23.59
2023-01-07T06:27:30.365Z,23.32
2023-01-07T06:28:32.276Z,23.75
2023-01-07T06:29:34.038Z,23.52
2023-01-07T06:30:35.873Z,23.69
2023-01-07T06:31:37.743Z,23.53
2023-01-07T06:32:44.770Z,23.70
2023-01-07T06:33:46.686Z,23.13
2023-01-07T06:34:48.449Z,23.59
2023-01-07T06:35:50.272Z,23.82
2023-01-07T06:36:52.067Z,23.60
2023-01-07T06:37:54.012Z,23.43
2023-01-07T06:38:55.818Z,23.81
2023-01-07T06:39:58.360Z,23.50
2023-01-07T06:41:01.921Z,23.29
2023-01-07T06:42:03.808Z,23.55
2023-01-07T06:43:05.638Z,23.69
2023-01-07T06:44:07.640Z,23.62
2023-01-07T06:45:10.031Z,23.66
2023-01-07T06:46:11.945Z,23.71
2023-01-07T06:47:13.858Z,23.59
2023-01-07T06:48:15.682Z,23.67
2023-01-07T06:49:17.548Z,23.92
2023-01-07T06:50:19.388Z,23.61
2023-01-07T06:51:21.223Z,23.53
2023-01-07T06:52:23.181Z,23.74
2023-01-07T06:53:24.968Z,23.80
2023-01-07T06:54:26.775Z,23.42
2023-01-07T06:55:28.605Z,23.83
2023-01-07T06:56:30.513Z,23.60
2023-01-07T06:57:32.497Z,23.66
2023-01-07T06:58:34.374Z,23.73
2023-01-07T06:59:36.178Z,23.98
2023-01-07T07:00:38.008Z,23.88
2023-01-07T07:01:39.965Z,23.97
2023-01-07T07:02:42.163Z,23.85
2023-01-07T07:03:43.973Z,23.98
2023-01-07T07:04:45.833Z,24.12
2023-01-07T07:05:47.744Z,23.74
2023-01-07T07:06:49.593Z,23.63
2023-01-07T07:07:51.476Z,23.88
2023-01-07T07:08:53.334Z,24.08
2023-01-07T07:09:55.195Z,24.10
2023-01-07T07:10:56.959Z,23.84
2023-01-07T07:11:58.741Z,23.74
2023-01-07T07:13:00.570Z,24.05
2023-01-07T07:14:03.977Z,23.69
2023-01-07T07:15:07.979Z,23.81
2023-01-07T07:16:09.851Z,23.69
2023-01-07T07:17:11.737Z,23.91
2023-01-07T07:18:13.556Z,23.52
2023-01-07T07:19:15.486Z,23.83
2023-01-07T07:20:18.664Z,23.84
2023-01-07T07:21:20.462Z,23.71
2023-01-07T07:22:22.552Z,23.41
2023-01-07T07:23:24.657Z,23.80
2023-01-07T07:24:26.745Z,23.41
2023-01-07T07:25:28.883Z,23.74
2023-01-07T07:26:30.728Z,23.31
2023-01-07T07:27:32.596Z,23.71
2023-01-07T07:28:34.387Z,23.23
2023-01-07T07:29:36.176Z,23.45
2023-01-07T07:30:46.900Z,23.26
2023-01-07T07:31:49.957Z,23.28
2023-01-07T07:32:51.700Z,23.20
2023-01-07T07:33:53.587Z,23.15
2023-01-07T07:34:58.368Z,23.42
2023-01-07T07:36:00.578Z,22.98
2023-01-07T07:37:02.547Z,23.05
2023-01-07T07:38:04.320Z,23.10
2023-01-07T07:39:07.087Z,22.63
2023-01-07T07:40:09.531Z,23.21
2023-01-07T07:41:11.301Z,22.78
2023-01-07T07:42:13.181Z,22.92
2023-01-07T07:43:18.582Z,23.02
2023-01-07T07:44:20.492Z,22.66
2023-01-07T07:45:22.303Z,22.79
2023-01-07T07:46:24.144Z,22.67
2023-01-07T07:47:25.988Z,22.74
2023-01-07T07:48:27.862Z,22.82
2023-01-07T07:49:30.255Z,22.85
2023-01-07T07:50:32.023Z,22.79
2023-01-07T07:51:33.869Z,22.57
2023-01-07T07:52:35.687Z,22.78
2023-01-07T07:53:37.443Z,22.56
2023-01-07T07:54:39.239Z,22.38
2023-01-07T07:55:41.196Z,22.70
2023-01-07T07:56:43.028Z,22.26
2023-01-07T07:57:44.821Z,22.48
2023-01-07T07:58:46.579Z,22.53
2023-01-07T07:59:48.346Z,22.46
2023-01-07T08:00:50.303Z,22.27
2023-01-07T08:01:52.388Z,22.59
2023-01-07T08:02:58.386Z,22.42
2023-01-07T08:04:00.203Z,22.36
2023-01-07T08:05:02.201Z,22.23
2023-01-07T08:06:05.203Z,22.43
2023-01-07T08:07:07.115Z,22.35
2023-01-07T08:08:12.612Z,22.51
2023-01-07T08:09:14.361Z,22.32
2023-01-07T08:10:16.249Z,22.34
2023-01-07T08:11:18.079Z,22.47
2023-01-07T08:12:19.851Z,22.33
2023-01-07T08:13:21.970Z,22.29
2023-01-07T08:14:23.784Z,22.55
2023-01-07T08:15:25.546Z,22.37
2023-01-07T08:16:28.237Z,22.48
2023-01-07T08:17:30.020Z,22.46
2023-01-07T08:18:32.033Z,22.27
2023-01-07T08:19:33.842Z,21.65
2023-01-07T08:20:37.009Z,22.54
2023-01-07T08:21:38.804Z,22.32
2023-01-07T08:22:40.717Z,22.17
2023-01-07T08:23:42.661Z,22.42
2023-01-07T08:24:44.502Z,22.43
2023-01-07T08:25:46.325Z,22.51
2023-01-07T08:26:48.221Z,22.31
2023-01-07T08:27:50.029Z,22.39
2023-01-07T08:28:51.866Z,22.17
2023-01-07T08:29:54.780Z,22.30
2023-01-07T08:30:56.603Z,22.22
2023-01-07T08:31:58.438Z,22.15
2023-01-07T08:33:00.453Z,22.38
2023-01-07T08:34:02.228Z,22.50
2023-01-07T08:35:04.564Z,22.40
2023-01-07T08:36:18.165Z,22.42
2023-01-07T08:37:23.457Z,22.34
2023-01-07T08:38:26.511Z,22.32
2023-01-07T08:39:28.308Z,22.39
2023-01-07T08:40:30.123Z,22.34
2023-01-07T08:41:31.994Z,22.37
2023-01-07T08:42:33.820Z,22.49
2023-01-07T08:43:36.218Z,22.39
2023-01-07T08:44:38.092Z,22.08
2023-01-07T08:45:39.855Z,22.55
2023-01-07T08:46:42.909Z,22.27
2023-01-07T08:47:47.827Z,22.34
2023-01-07T08:48:49.603Z,22.13
2023-01-07T08:49:51.510Z,22.52
2023-01-07T08:50:54.604Z,22.35
2023-01-07T08:51:56.416Z,22.25
2023-01-07T08:52:58.797Z,22.21
2023-01-07T08:54:00.553Z,22.37
2023-01-07T08:55:02.380Z,22.24
2023-01-07T08:56:04.348Z,22.46
2023-01-07T08:57:06.152Z,22.46
2023-01-07T08:58:08.053Z,22.22
2023-01-07T08:59:09.973Z,22.29
2023-01-07T09:00:13.580Z,22.38
2023-01-07T09:01:16.315Z,22.50
2023-01-07T09:02:19.771Z,22.48
2023-01-07T09:03:21.661Z,22.61
2023-01-07T09:04:23.587Z,22.28
2023-01-07T09:05:25.373Z,22.52
2023-01-07T09:06:27.164Z,22.10
2023-01-07T09:07:28.975Z,22.30
2023-01-07T09:08:31.061Z,22.54
2023-01-07T09:09:32.862Z,22.21
2023-01-07T09:10:34.643Z,22.25
2023-01-07T09:11:36.516Z,22.17
2023-01-07T09:12:38.424Z,22.35
2023-01-07T09:13:40.211Z,22.51
2023-01-07T09:14:41.979Z,22.32
2023-01-07T09:15:44.817Z,22.54
2023-01-07T09:16:46.753Z,22.49
2023-01-07T09:17:48.684Z,22.39
2023-01-07T09:18:50.906Z,22.29
2023-01-07T09:19:52.819Z,22.41
2023-01-07T09:20:54.687Z,22.42
2023-01-07T09:21:56.751Z,22.48
2023-01-07T09:22:58.577Z,22.58
2023-01-07T09:24:00.667Z,22.36
2023-01-07T09:25:02.780Z,22.59
2023-01-07T09:26:04.634Z,22.22
2023-01-07T09:27:06.403Z,22.53
2023-01-07T09:28:08.228Z,22.85
2023-01-07T09:29:10.314Z,22.66
2023-01-07T09:30:13.150Z,22.59
2023-01-07T09:31:15.047Z,22.64
2023-01-07T09:32:17.914Z,22.71
2023-01-07T09:33:19.745Z,22.71
2023-01-07T09:34:21.608Z,22.45
2023-01-07T09:35:23.492Z,22.73
2023-01-07T09:36:25.629Z,22.66
2023-01-07T09:37:27.390Z,22.80
2023-01-07T09:38:29.978Z,22.68
2023-01-07T09:39:31.936Z,22.67
2023-01-07T09:40:39.545Z,22.75
2023-01-07T09:42:34.651Z,22.61
2023-01-07T09:43:59.732Z,22.42
2023-01-07T09:45:11.984Z,22.33
2023-01-07T09:46:16.409Z,22.45
2023-01-07T09:47:22.116Z,22.49
2023-01-07T09:48:30.367Z,22.48
2023-01-07T09:49:33.353Z,22.61
2023-01-07T09:50:40.939Z,22.74
2023-01-07T09:51:48.871Z,22.70
2023-01-07T09:52:53.883Z,22.81
2023-01-07T09:53:59.705Z,22.56
2023-01-07T09:55:16.240Z,22.76
2023-01-07T09:56:40.005Z,22.59
2023-01-07T09:57:41.996Z,22.51
2023-01-07T09:58:46.850Z,22.43
2023-01-07T09:59:48.718Z,22.65
2023-01-07T10:01:13.355Z,22.84
2023-01-07T10:02:33.913Z,22.75
2023-01-07T10:03:41.786Z,22.66
2023-01-07T10:05:17.558Z,22.71
2023-01-07T10:06:43.041Z,22.41
2023-01-07T10:08:31.265Z,22.35
2023-01-07T10:09:31.339Z,22.60
2023-01-07T10:10:48.740Z,22.77
2023-01-07T10:12:00.594Z,22.67
2023-01-07T10:13:22.872Z,22.68
2023-01-07T10:14:30.392Z,22.69
2023-01-07T10:15:38.255Z,22.61
2023-01-07T10:16:53.527Z,22.78
2023-01-07T10:18:06.117Z,22.52
2023-01-07T10:19:25.714Z,22.66
2023-01-07T10:20:42.786Z,22.49
2023-01-07T10:22:02.592Z,22.72
2023-01-07T10:23:11.198Z,22.78
2023-01-07T10:24:25.025Z,22.71
2023-01-07T10:25:32.372Z,22.60
2023-01-07T10:26:39.389Z,22.38
2023-01-07T10:27:44.264Z,22.74
2023-01-07T10:28:52.649Z,22.88
2023-01-07T10:29:58.515Z,22.55
2023-01-07T10:31:01.729Z,22.45
2023-01-07T10:32:12.810Z,22.81
2023-01-07T10:33:29.136Z,22.71
2023-01-07T10:34:37.458Z,22.63
2023-01-07T10:35:41.325Z,22.94
2023-01-07T10:36:56.869Z,22.87
2023-01-07T10:38:04.336Z,22.83
2023-01-07T10:39:25.389Z,22.83
2023-01-07T10:40:46.904Z,22.54
2023-01-07T10:41:51.967Z,22.67
2023-01-07T10:43:41.198Z,22.91
2023-01-07T10:45:04.322Z,22.45
2023-01-07T10:46:24.152Z,22.51
2023-01-07T10:47:50.603Z,22.73
2023-01-07T10:49:03.059Z,22.63
2023-01-07T10:50:25.784Z,22.72
2023-01-07T10:51:52.204Z,22.50
2023-01-07T10:53:28.868Z,22.76
2023-01-07T10:54:48.673Z,22.74
2023-01-07T10:56:14.924Z,22.78
2023-01-07T10:57:25.395Z,22.40
2023-01-07T10:58:36.600Z,22.83
2023-01-07T10:59:38.915Z,22.67
2023-01-07T11:00:41.733Z,22.80
2023-01-07T11:01:51.523Z,22.82
2023-01-07T11:02:58.000Z,23.05
2023-01-07T11:04:01.337Z,22.60
2023-01-07T11:05:03.228Z,23.01
2023-01-07T11:06:10.684Z,22.81
2023-01-07T11:07:27.555Z,22.81
2023-01-07T11:08:36.861Z,22.97
2023-01-07T11:09:42.528Z,22.69
2023-01-07T11:10:44.272Z,22.98
2023-01-07T11:11:47.075Z,22.75
2023-01-07T11:12:53.608Z,23.10
2023-01-07T11:14:11.945Z,23.02
2023-01-07T11:15:31.277Z,23.07
2023-01-07T11:16:43.351Z,22.93
2023-01-07T11:17:51.775Z,22.76
2023-01-07T11:19:03.766Z,22.82
2023-01-07T11:20:06.827Z,22.70
2023-01-07T11:21:08.712Z,22.74
2023-01-07T11:22:33.780Z,22.70
2023-01-07T11:23:35.795Z,22.98
2023-01-07T11:24:37.630Z,22.87
2023-01-07T11:25:39.459Z,22.94
2023-01-07T11:26:41.305Z,23.02
2023-01-07T11:27:45.885Z,22.77
2023-01-07T11:28:56.376Z,22.96
2023-01-07T11:30:21.789Z,22.90
2023-01-07T11:31:44.271Z,22.70
2023-01-07T11:32:55.664Z,22.83
2023-01-07T11:34:01.424Z,22.61
2023-01-07T11:35:19.824Z,22.88
2023-01-07T11:36:39.584Z,22.82
2023-01-07T11:37:43.554Z,22.63
2023-01-07T11:38:46.543Z,22.70
2023-01-07T11:39:59.652Z,22.97
2023-01-07T11:41:01.752Z,22.79
2023-01-07T11:42:34.946Z,23.07
2023-01-07T11:43:40.940Z,22.61
2023-01-07T11:44:42.724Z,22.60
2023-01-07T11:46:20.151Z,22.90
2023-01-07T11:47:17.647Z,22.72
2023-01-07T11:48:35.642Z,22.68
2023-01-07T11:49:44.353Z,22.79
2023-01-07T11:50:59.923Z,22.82
2023-01-07T11:52:01.761Z,22.54
2023-01-07T11:53:15.811Z,22.66
2023-01-07T11:54:29.298Z,23.00
2023-01-07T11:55:31.298Z,22.73
2023-01-07T11:56:34.416Z,22.68
2023-01-07T11:57:36.719Z,22.71
2023-01-07T11:58:44.582Z,22.93
2023-01-07T11:59:46.469Z,22.71
2023-01-07T12:01:08.906Z,22.87
2023-01-07T12:02:31.112Z,22.95
2023-01-07T12:03:33.145Z,22.70
2023-01-07T12:04:37.190Z,22.61
2023-01-07T12:05:44.447Z,22.86
2023-01-07T12:06:49.379Z,22.68
2023-01-07T12:07:51.987Z,22.47
2023-01-07T12:09:05.226Z,22.79
2023-01-07T12:10:26.983Z,22.98
2023-01-07T12:11:34.802Z,22.83
2023-01-07T12:12:40.136Z,22.48
2023-01-07T12:13:48.303Z,22.77
2023-01-07T12:14:50.505Z,22.62
2023-01-07T12:16:08.132Z,22.72
2023-01-07T12:17:18.617Z,22.84
2023-01-07T12:18:28.946Z,22.66
2023-01-07T12:19:58.978Z,22.74
2023-01-07T12:21:34.002Z,22.68
2023-01-07T12:22:35.803Z,22.67
2023-01-07T12:24:09.417Z,22.50
2023-01-07T12:25:45.657Z,22.67
2023-01-07T12:26:54.846Z,22.51
2023-01-07T12:28:14.821Z,22.87
2023-01-07T12:29:22.294Z,22.52
2023-01-07T12:30:59.207Z,22.53
2023-01-07T12:32:16.625Z,22.72
2023-01-07T12:33:36.823Z,22.63
2023-01-07T12:34:48.162Z,22.50
2023-01-07T12:35:51.214Z,22.67
2023-01-07T12:37:01.610Z,22.75
2023-01-07T12:38:25.316Z,22.80
2023-01-07T12:39:37.991Z,22.51
2023-01-07T12:40:45.540Z,22.75
2023-01-07T12:41:55.741Z,22.79
2023-01-07T12:43:04.018Z,22.72
2023-01-07T12:44:18.480Z,22.65
2023-01-07T12:45:29.586Z,22.87
2023-01-07T12:46:54.253Z,22.84
2023-01-07T12:48:39.735Z,22.77
2023-01-07T12:50:13.669Z,22.65
2023-01-07T12:51:28.830Z,22.67
2023-01-07T12:53:03.793Z,22.71
2023-01-07T12:54:20.501Z,22.54
2023-01-07T12:55:39.924Z,22.60
2023-01-07T12:56:54.072Z,22.73
2023-01-07T12:58:37.704Z,22.75
2023-01-07T12:59:59.177Z,22.70
2023-01-07T13:01:10.586Z,22.58
2023-01-07T13:02:39.930Z,22.88
2023-01-07T13:03:44.731Z,22.56
2023-01-07T13:05:06.033Z,22.76
2023-01-07T13:06:26.623Z,22.72
2023-01-07T13:07:40.635Z,22.57
2023-01-07T13:08:51.382Z,22.72
2023-01-07T13:10:03.466Z,22.78
2023-01-07T13:11:46.954Z,22.84
2023-01-07T13:12:52.148Z,22.47
2023-01-07T13:13:55.473Z,22.79
2023-01-07T13:15:01.460Z,22.61
2023-01-07T13:16:05.374Z,22.74
2023-01-07T13:17:17.146Z,22.90
2023-01-07T13:18:20.937Z,22.78
2023-01-07T13:19:22.863Z,22.91
2023-01-07T13:20:43.140Z,23.21
2023-01-07T13:21:50.130Z,22.93
2023-01-07T13:22:56.451Z,23.23
2023-01-07T13:24:19.107Z,22.51
2023-01-07T13:25:27.234Z,22.49
2023-01-07T13:26:57.003Z,22.67
2023-01-07T13:28:33.605Z,22.54
2023-01-07T13:29:59.516Z,22.58
2023-01-07T13:31:01.383Z,22.71
2023-01-07T13:32:05.760Z,22.39
2023-01-07T13:33:07.480Z,23.01
2023-01-07T13:34:38.135Z,22.82
2023-01-07T13:35:48.928Z,22.89
2023-01-07T13:37:22.919Z,22.75
2023-01-07T13:38:31.084Z,22.67
2023-01-07T13:40:00.254Z,22.72
2023-01-07T13:41:39.931Z,22.68
2023-01-07T13:43:03.189Z,22.66
2023-01-07T13:44:20.223Z,22.41
2023-01-07T13:45:28.511Z,22.80
2023-01-07T13:46:37.420Z,22.81
2023-01-07T13:47:41.784Z,22.89
2023-01-07T13:48:52.447Z,22.87
2023-01-07T13:50:00.552Z,22.73
2023-01-07T13:51:08.739Z,22.95
2023-01-07T13:52:24.063Z,22.83
2023-01-07T13:53:25.973Z,22.69
2023-01-07T13:54:49.254Z,22.63
2023-01-07T13:55:52.122Z,22.72
2023-01-07T13:56:53.997Z,22.93
2023-01-07T13:57:56.016Z,22.74
2023-01-07T13:58:58.488Z,22.65
2023-01-07T14:00:26.072Z,22.84
2023-01-07T14:01:30.141Z,22.86
2023-01-07T14:02:57.828Z,22.90
2023-01-07T14:04:06.989Z,22.85
2023-01-07T14:05:11.514Z,22.98
2023-01-07T14:06:22.376Z,23.00
2023-01-07T14:07:24.495Z,22.84
2023-01-07T14:08:28.903Z,22.77
2023-01-07T14:09:36.436Z,22.94
2023-01-07T14:10:38.287Z,22.97
2023-01-07T14:11:58.681Z,22.63
2023-01-07T14:13:26.625Z,22.74
2023-01-07T14:14:51.298Z,22.60
2023-01-07T14:16:25.760Z,22.85
2023-01-07T14:17:51.320Z,22.55
2023-01-07T14:18:56.068Z,22.74
2023-01-07T14:20:03.783Z,22.67
2023-01-07T14:21:24.355Z,22.94
2023-01-07T14:22:44.268Z,22.89
2023-01-07T14:24:29.517Z,22.79
2023-01-07T14:25:50.932Z,22.75
2023-01-07T14:27:13.435Z,22.84